createdAt,value
2023-02-26T00:01:26.364Z,99381.22
2023-02-26T00:03:55.078Z,99384.53
2023-02-26T00:06:22.512Z,99382.19
2023-02-26T00:08:49.135Z,99383.94
2023-02-26T00:11:16.151Z,99390.09
2023-02-26T00:13:44.751Z,99388.59
2023-02-26T00:16:33.093Z,99396.91
2023-02-26T00:19:03.096Z,99392.75
2023-02-26T00:21:31.476Z,99389.19
2023-02-26T00:23:58.375Z,99402.06
2023-02-26T00:26:27.277Z,99401.84
2023-02-26T00:28:54.772Z,99400.16
2023-02-26T00:31:25.568Z,99400.28
2023-02-26T00:33:55.145Z,99412.13
2023-02-26T00:36:33.698Z,99416.88
2023-02-26T00:39:05.167Z,99415.16
2023-02-26T00:41:32.238Z,99417.81
2023-02-26T00:43:59.739Z,99414.88
2023-02-26T00:46:40.097Z,99424.94
2023-02-26T00:49:31.199Z,99423.53
2023-02-26T00:52:03.539Z,99424.63
2023-02-26T00:54:31.435Z,99424.34
2023-02-26T00:56:59.033Z,99419.69
2023-02-26T00:59:26.174Z,99420.63
2023-02-26T01:01:53.703Z,99416.78
2023-02-26T01:04:22.306Z,99421.31
2023-02-26T01:06:52.538Z,99421.00
2023-02-26T01:09:25.742Z,99424.34
2023-02-26T01:11:53.421Z,99424.94
2023-02-26T01:14:20.316Z,99426.25
2023-02-26T01:17:10.619Z,99431.81
2023-02-26T01:19:43.752Z,99430.03
2023-02-26T01:22:18.520Z,99427.97
2023-02-26T01:24:47.334Z,99424.69
2023-02-26T01:27:14.406Z,99426.09
2023-02-26T01:29:41.046Z,99440.03
2023-02-26T01:32:46.597Z,99433.34
2023-02-26T01:35:23.445Z,99441.34
2023-02-26T01:38:06.452Z,99438.69
2023-02-26T01:40:54.581Z,99438.09
2023-02-26T01:43:29.037Z,99447.75
2023-02-26T01:46:04.118Z,99446.81
2023-02-26T01:48:43.221Z,99449.84
2023-02-26T01:51:09.738Z,99450.88
2023-02-26T01:53:36.743Z,99460.78
2023-02-26T01:56:09.364Z,99461.31
2023-02-26T01:58:36.671Z,99464.28
2023-02-26T02:01:04.168Z,99466.84
2023-02-26T02:03:33.112Z,99467.97
2023-02-26T02:06:07.073Z,99480.00
2023-02-26T02:08:35.681Z,99472.88
2023-02-26T02:11:04.569Z,99476.63
2023-02-26T02:13:50.855Z,99478.34
2023-02-26T02:16:35.919Z,99487.06
2023-02-26T02:19:34.144Z,99489.06
2023-02-26T02:22:40.887Z,99492.22
2023-02-26T02:25:35.779Z,99493.03
2023-02-26T02:28:29.325Z,99500.97
2023-02-26T02:31:10.081Z,99502.59
2023-02-26T02:33:51.361Z,99504.00
2023-02-26T02:36:42.890Z,99511.91
2023-02-26T02:39:20.612Z,99513.81
2023-02-26T02:41:53.629Z,99524.19
2023-02-26T02:44:23.555Z,99519.31
2023-02-26T02:46:52.881Z,99519.81
2023-02-26T02:49:27.335Z,99530.41
2023-02-26T02:52:02.676Z,99534.84
2023-02-26T02:54:47.261Z,99537.28
2023-02-26T02:57:19.508Z,99549.63
2023-02-26T02:59:49.443Z,99550.91
2023-02-26T03:02:53.890Z,99550.03
2023-02-26T03:05:20.506Z,99552.81
2023-02-26T03:07:57.537Z,99564.06
2023-02-26T03:10:24.356Z,99567.41
2023-02-26T03:12:51.129Z,99568.28
2023-02-26T03:15:26.186Z,99574.78
2023-02-26T03:18:04.218Z,99577.97
2023-02-26T03:20:36.766Z,99577.00
2023-02-26T03:23:06.351Z,99583.75
2023-02-26T03:25:46.011Z,99581.00
2023-02-26T03:28:25.553Z,99586.25
2023-02-26T03:31:11.034Z,99588.66
2023-02-26T03:33:54.495Z,99598.31
2023-02-26T03:36:27.008Z,99610.03
2023-02-26T03:39:03.540Z,99604.25
2023-02-26T03:41:34.534Z,99612.16
2023-02-26T03:44:09.873Z,99617.75
2023-02-26T03:46:41.552Z,99622.53
2023-02-26T03:49:16.647Z,99631.84
2023-02-26T03:51:44.745Z,99633.25
2023-02-26T03:54:24.103Z,99633.84
2023-02-26T03:56:50.719Z,99638.50
2023-02-26T03:59:17.968Z,99637.16
2023-02-26T04:02:10.643Z,99651.41
2023-02-26T04:04:51.054Z,99648.41
2023-02-26T04:07:18.742Z,99654.03
2023-02-26T04:09:47.423Z,99644.50
2023-02-26T04:12:14.435Z,99659.00
2023-02-26T04:14:40.876Z,99658.13
2023-02-26T04:17:07.523Z,99667.25
2023-02-26T04:19:33.979Z,99668.31
2023-02-26T04:22:00.548Z,99677.16
2023-02-26T04:24:26.980Z,99688.00
2023-02-26T04:26:53.489Z,99690.84
2023-02-26T04:29:20.011Z,99685.22
2023-02-26T04:31:46.677Z,99684.16
2023-02-26T04:34:13.509Z,99696.50
2023-02-26T04:36:40.118Z,99699.00
2023-02-26T04:39:10.633Z,99694.88
2023-02-26T04:41:37.973Z,99700.34
2023-02-26T04:44:05.316Z,99711.28
2023-02-26T04:46:32.358Z,99703.94
2023-02-26T04:48:58.914Z,99705.88
2023-02-26T04:51:25.718Z,99714.09
2023-02-26T04:53:52.367Z,99711.88
2023-02-26T04:56:18.994Z,99714.59
2023-02-26T04:58:45.518Z,99720.63
2023-02-26T05:01:13.660Z,99729.34
2023-02-26T05:03:40.391Z,99732.03
2023-02-26T05:06:07.822Z,99734.25
2023-02-26T05:08:34.343Z,99738.38
2023-02-26T05:11:01.288Z,99737.56
2023-02-26T05:13:27.815Z,99745.59
2023-02-26T05:15:54.883Z,99748.56
2023-02-26T05:18:21.380Z,99743.09
2023-02-26T05:20:53.640Z,99749.72
2023-02-26T05:23:20.556Z,99752.16
2023-02-26T05:25:47.386Z,99757.59
2023-02-26T05:28:14.178Z,99755.13
2023-02-26T05:30:40.869Z,99767.81
2023-02-26T05:33:07.493Z,99767.81
2023-02-26T05:35:34.087Z,99774.31
2023-02-26T05:38:00.552Z,99770.47
2023-02-26T05:40:27.055Z,99777.84
2023-02-26T05:42:53.504Z,99779.47
2023-02-26T05:45:19.923Z,99784.38
2023-02-26T05:47:46.465Z,99790.47
2023-02-26T05:50:13.787Z,99799.75
2023-02-26T05:52:40.715Z,99797.53
2023-02-26T05:55:08.257Z,99806.00
2023-02-26T05:57:34.769Z,99810.38
2023-02-26T06:00:01.344Z,99814.75
2023-02-26T06:02:28.065Z,99820.75
2023-02-26T06:04:54.658Z,99826.47
2023-02-26T06:07:21.580Z,99826.78
2023-02-26T06:09:48.122Z,99834.44
2023-02-26T06:12:14.608Z,99840.97
2023-02-26T06:14:41.258Z,99837.16
2023-02-26T06:17:08.447Z,99849.22
2023-02-26T06:19:35.008Z,99848.66
2023-02-26T06:22:01.902Z,99848.69
2023-02-26T06:24:28.427Z,99848.16
2023-02-26T06:26:55.025Z,99858.28
2023-02-26T06:29:21.922Z,99864.34
2023-02-26T06:31:48.530Z,99863.81
2023-02-26T06:34:15.534Z,99875.50
2023-02-26T06:36:42.038Z,99879.31
2023-02-26T06:39:08.633Z,99880.69
2023-02-26T06:41:35.183Z,99886.72
2023-02-26T06:44:01.696Z,99895.75
2023-02-26T06:46:28.212Z,99898.19
2023-02-26T06:48:54.762Z,99907.25
2023-02-26T06:51:21.271Z,99909.38
2023-02-26T06:53:47.742Z,99914.53
2023-02-26T06:56:14.535Z,99915.97
2023-02-26T06:58:41.040Z,99915.66
2023-02-26T07:01:07.527Z,99922.50
2023-02-26T07:03:34.067Z,99927.44
2023-02-26T07:06:18.738Z,99924.38
2023-02-26T07:08:47.570Z,99933.19
2023-02-26T07:11:14.742Z,99929.56
2023-02-26T07:13:41.370Z,99940.56
2023-02-26T07:16:08.512Z,99943.88
2023-02-26T07:18:37.422Z,99952.28
2023-02-26T07:21:04.882Z,99949.84
2023-02-26T07:23:31.797Z,99951.72
2023-02-26T07:25:58.380Z,99967.06
2023-02-26T07:28:25.133Z,99965.16
2023-02-26T07:30:54.601Z,99968.94
2023-02-26T07:33:21.428Z,99963.19
2023-02-26T07:35:48.392Z,99968.91
2023-02-26T07:38:15.005Z,99974.81
2023-02-26T07:40:41.473Z,99980.34
2023-02-26T07:43:08.004Z,99977.59
2023-02-26T07:45:34.518Z,99987.47
2023-02-26T07:48:00.973Z,99980.63
2023-02-26T07:50:27.712Z,99994.88
2023-02-26T07:52:54.297Z,99995.72
2023-02-26T07:55:21.249Z,100001.78
2023-02-26T07:57:47.716Z,100005.56
2023-02-26T08:00:15.574Z,100008.53
2023-02-26T08:02:42.108Z,100002.81
2023-02-26T08:05:08.770Z,100008.50
2023-02-26T08:07:35.371Z,100014.72
2023-02-26T08:10:02.061Z,100024.84
2023-02-26T08:12:28.686Z,100027.06
2023-02-26T08:14:55.243Z,100022.69
2023-02-26T08:17:22.529Z,100030.88
2023-02-26T08:19:48.993Z,100027.59
2023-02-26T08:22:15.465Z,100031.09
2023-02-26T08:24:42.435Z,100032.13
2023-02-26T08:27:08.940Z,100039.84
2023-02-26T08:29:35.646Z,100039.84
2023-02-26T08:32:02.199Z,100051.03
2023-02-26T08:34:28.796Z,100048.31
2023-02-26T08:36:55.487Z,100059.78
2023-02-26T08:39:22.033Z,100051.22
2023-02-26T08:41:48.730Z,100061.47
2023-02-26T08:44:15.310Z,100062.31
2023-02-26T08:46:41.920Z,100067.31
2023-02-26T08:49:08.524Z,100080.66
2023-02-26T08:51:35.186Z,100080.03
2023-02-26T08:54:01.855Z,100087.16
2023-02-26T08:56:28.523Z,100085.47
2023-02-26T08:58:55.124Z,100085.47
2023-02-26T09:01:22.399Z,100095.78
2023-02-26T09:03:48.938Z,100095.69
2023-02-26T09:06:15.465Z,100096.94
2023-02-26T09:08:42.164Z,100106.47
2023-02-26T09:11:08.733Z,100103.84
2023-02-26T09:13:35.646Z,100111.50
2023-02-26T09:16:02.265Z,100118.69
2023-02-26T09:18:28.903Z,100122.75
2023-02-26T09:20:55.509Z,100125.16
2023-02-26T09:23:22.255Z,100127.66
2023-02-26T09:25:57.828Z,100131.16
2023-02-26T09:28:25.413Z,100129.28
2023-02-26T09:30:53.604Z,100140.22
2023-02-26T09:33:20.916Z,100145.09
2023-02-26T09:35:51.443Z,100150.22
2023-02-26T09:38:18.458Z,100146.75
2023-02-26T09:40:57.504Z,100151.72
2023-02-26T09:43:27.100Z,100158.75
2023-02-26T09:45:55.025Z,100161.63
2023-02-26T09:48:22.478Z,100159.03
2023-02-26T09:50:55.185Z,100159.09
2023-02-26T09:53:28.127Z,100160.63
2023-02-26T09:55:58.990Z,100157.06
2023-02-26T09:58:33.066Z,100163.66
2023-02-26T10:01:16.476Z,100160.84
2023-02-26T10:04:23.767Z,100171.94
2023-02-26T10:06:53.293Z,100176.09
2023-02-26T10:09:27.253Z,100177.78
2023-02-26T10:12:03.633Z,100181.03
2023-02-26T10:15:03.903Z,100186.84
2023-02-26T10:17:35.590Z,100194.72
2023-02-26T10:20:18.324Z,100185.50
2023-02-26T10:22:59.720Z,100200.00
2023-02-26T10:25:35.035Z,100199.13
2023-02-26T10:28:26.663Z,100207.69
2023-02-26T10:31:03.403Z,100215.09
2023-02-26T10:33:40.700Z,100212.59
2023-02-26T10:36:26.140Z,100213.53
2023-02-26T10:39:17.823Z,100217.78
2023-02-26T10:41:45.199Z,100230.00
2023-02-26T10:44:20.741Z,100234.66
2023-02-26T10:47:21.284Z,100232.53
2023-02-26T10:49:56.988Z,100225.34
2023-02-26T10:52:25.942Z,100230.34
2023-02-26T10:55:04.574Z,100225.84
2023-02-26T10:57:34.146Z,100223.94
2023-02-26T11:00:01.536Z,100234.25
2023-02-26T11:02:35.909Z,100239.25
2023-02-26T11:05:07.910Z,100245.22
2023-02-26T11:07:36.704Z,100239.19
2023-02-26T11:10:03.786Z,100244.00
2023-02-26T11:12:32.014Z,100244.66
2023-02-26T11:15:01.119Z,100238.25
2023-02-26T11:17:32.301Z,100238.81
2023-02-26T11:20:12.330Z,100240.78
2023-02-26T11:22:39.398Z,100241.16
2023-02-26T11:25:06.556Z,100243.28
2023-02-26T11:27:38.098Z,100247.41
2023-02-26T11:30:18.545Z,100244.47
2023-02-26T11:32:46.200Z,100245.84
2023-02-26T11:35:14.972Z,100237.53
2023-02-26T11:37:46.533Z,100248.69
2023-02-26T11:40:22.603Z,100256.16
2023-02-26T11:42:58.745Z,100248.84
2023-02-26T11:45:25.732Z,100263.03
2023-02-26T11:48:06.890Z,100259.69
2023-02-26T11:50:43.295Z,100264.06
2023-02-26T11:53:24.471Z,100269.59
2023-02-26T11:56:09.458Z,100260.97
2023-02-26T11:58:39.347Z,100263.22
2023-02-26T12:01:08.489Z,100265.81
2023-02-26T12:03:40.878Z,100258.00
2023-02-26T12:06:15.663Z,100259.22
2023-02-26T12:08:42.143Z,100258.41
2023-02-26T12:11:08.678Z,100263.94
2023-02-26T12:14:12.704Z,100261.69
2023-02-26T12:16:52.092Z,100259.31
2023-02-26T12:19:22.091Z,100265.34
2023-02-26T12:22:06.976Z,100270.06
2023-02-26T12:24:55.385Z,100266.50
2023-02-26T12:27:37.956Z,100270.50
2023-02-26T12:30:39.078Z,100273.28
2023-02-26T12:33:10.681Z,100272.94
2023-02-26T12:35:59.292Z,100290.88
2023-02-26T12:38:37.771Z,100287.81
2023-02-26T12:41:10.861Z,100288.50
2023-02-26T12:43:50.159Z,100289.66
2023-02-26T12:46:38.134Z,100302.38
2023-02-26T12:49:17.162Z,100293.00
2023-02-26T12:51:54.465Z,100304.84
2023-02-26T12:54:36.719Z,100307.38
2023-02-26T12:57:07.377Z,100313.34
2023-02-26T12:59:52.669Z,100307.19
2023-02-26T13:02:28.661Z,100303.03
2023-02-26T13:05:22.618Z,100313.69
2023-02-26T13:07:52.939Z,100306.16
2023-02-26T13:10:38.662Z,100307.38
2023-02-26T13:13:28.491Z,100305.47
2023-02-26T13:16:13.813Z,100306.56
2023-02-26T13:18:52.480Z,100303.28
2023-02-26T13:21:27.663Z,100302.47
2023-02-26T13:24:05.169Z,100301.72
2023-02-26T13:26:33.856Z,100311.50
2023-02-26T13:29:11.596Z,100319.81
2023-02-26T13:31:51.118Z,100339.63
2023-02-26T13:34:30.493Z,100341.72
2023-02-26T13:36:57.405Z,100341.44
2023-02-26T13:39:40.458Z,100342.47
2023-02-26T13:42:27.467Z,100342.06
2023-02-26T13:45:03.394Z,100340.84
2023-02-26T13:48:02.420Z,100340.72
2023-02-26T13:50:39.596Z,100342.91
2023-02-26T13:53:41.106Z,100343.03
2023-02-26T13:56:15.511Z,100349.47
2023-02-26T13:58:44.642Z,100342.03
2023-02-26T14:01:17.363Z,100344.44
2023-02-26T14:04:22.562Z,100334.50
2023-02-26T14:06:52.536Z,100334.34
2023-02-26T14:09:21.988Z,100335.59
2023-02-26T14:12:02.220Z,100331.00
2023-02-26T14:14:41.544Z,100335.09
2023-02-26T14:17:08.172Z,100332.94
2023-02-26T14:19:54.047Z,100332.03
2023-02-26T14:22:25.972Z,100334.34
2023-02-26T14:25:11.477Z,100343.13
2023-02-26T14:27:40.466Z,100343.72
2023-02-26T14:30:10.086Z,100346.28
2023-02-26T14:32:53.318Z,100342.53
2023-02-26T14:35:22.128Z,100338.72
2023-02-26T14:38:03.334Z,100340.16
2023-02-26T14:40:40.156Z,100341.56
2023-02-26T14:43:14.876Z,100341.84
2023-02-26T14:45:42.891Z,100337.56
2023-02-26T14:48:18.015Z,100350.47
2023-02-26T14:51:08.953Z,100353.75
2023-02-26T14:53:35.507Z,100357.88
2023-02-26T14:56:08.152Z,100361.81
2023-02-26T14:59:02.377Z,100361.00
2023-02-26T15:01:45.546Z,100369.00
2023-02-26T15:04:57.258Z,100368.06
2023-02-26T15:07:54.531Z,100374.31
2023-02-26T15:10:33.099Z,100383.63
2023-02-26T15:13:27.612Z,100378.06
2023-02-26T15:16:10.896Z,100381.59
2023-02-26T15:18:49.397Z,100376.19
2023-02-26T15:21:43.541Z,100378.16
2023-02-26T15:24:12.002Z,100386.78
2023-02-26T15:26:45.605Z,100387.31
2023-02-26T15:29:13.783Z,100385.09
2023-02-26T15:32:03.306Z,100379.03
2023-02-26T15:34:30.826Z,100383.84
2023-02-26T15:36:58.638Z,100395.88
2023-02-26T15:39:25.814Z,100397.72
2023-02-26T15:41:54.134Z,100397.75
2023-02-26T15:44:31.416Z,100393.81
2023-02-26T15:47:01.279Z,100392.16
2023-02-26T15:49:48.392Z,100396.31
2023-02-26T15:52:18.137Z,100405.47
2023-02-26T15:54:49.780Z,100405.78
2023-02-26T15:57:17.684Z,100404.47
2023-02-26T15:59:46.604Z,100404.47
2023-02-26T16:02:21.038Z,100415.00
2023-02-26T16:04:47.996Z,100416.41
2023-02-26T16:07:14.574Z,100422.44
2023-02-26T16:09:45.804Z,100427.34
2023-02-26T16:12:31.959Z,100414.75
2023-02-26T16:15:04.863Z,100435.81
2023-02-26T16:17:35.791Z,100433.91
2023-02-26T16:20:11.335Z,100435.59
2023-02-26T16:22:42.338Z,100429.84
2023-02-26T16:25:25.106Z,100431.75
2023-02-26T16:28:04.156Z,100443.06
2023-02-26T16:30:35.088Z,100430.44
2023-02-26T16:33:02.191Z,100437.00
2023-02-26T16:35:34.831Z,100448.28
2023-02-26T16:38:12.351Z,100448.28
2023-02-26T16:43:33.548Z,100452.44
2023-02-26T16:46:04.369Z,100452.97
2023-02-26T16:48:48.484Z,100465.59
2023-02-26T16:51:19.960Z,100454.91
2023-02-26T16:53:51.017Z,100475.44
2023-02-26T16:56:19.608Z,100478.69
2023-02-26T16:58:51.493Z,100480.06
2023-02-26T17:01:19.111Z,100484.44
2023-02-26T17:03:55.666Z,100483.06
2023-02-26T17:06:22.759Z,100498.09
2023-02-26T17:08:55.733Z,100503.56
2023-02-26T17:11:30.988Z,100501.66
2023-02-26T17:14:08.885Z,100508.78
2023-02-26T17:16:35.549Z,100509.63
2023-02-26T17:19:02.748Z,100514.00
2023-02-26T17:21:30.966Z,100515.66
2023-02-26T17:23:57.868Z,100524.47
2023-02-26T17:26:25.100Z,100526.41
2023-02-26T17:28:51.576Z,100540.66
2023-02-26T17:31:18.089Z,100534.63
2023-02-26T17:33:44.871Z,100544.25
2023-02-26T17:36:16.040Z,100543.69
2023-02-26T17:38:46.978Z,100539.03
2023-02-26T17:41:17.682Z,100545.88
2023-02-26T17:43:44.292Z,100553.53
2023-02-26T17:46:12.277Z,100554.06
2023-02-26T17:48:39.018Z,100560.66
2023-02-26T17:51:05.702Z,100565.28
2023-02-26T17:53:40.738Z,100569.94
2023-02-26T17:56:12.201Z,100571.03
2023-02-26T17:58:40.723Z,100575.63
2023-02-26T18:01:08.509Z,100579.97
2023-02-26T18:03:35.197Z,100582.69
2023-02-26T18:06:01.861Z,100589.53
2023-02-26T18:08:30.565Z,100587.28
2023-02-26T18:10:58.598Z,100593.75
2023-02-26T18:13:26.824Z,100589.63
2023-02-26T18:15:53.681Z,100601.44
2023-02-26T18:18:20.381Z,100596.50
2023-02-26T18:20:47.452Z,100597.56
2023-02-26T18:23:16.643Z,100606.56
2023-02-26T18:25:47.348Z,100607.34
2023-02-26T18:28:24.395Z,100606.81
2023-02-26T18:30:52.275Z,100617.75
2023-02-26T18:33:19.532Z,100618.06
2023-02-26T18:35:47.923Z,100612.88
2023-02-26T18:38:16.272Z,100619.03
2023-02-26T18:40:43.613Z,100621.03
2023-02-26T18:43:12.696Z,100632.78
2023-02-26T18:45:40.453Z,100635.81
2023-02-26T18:48:07.108Z,100634.41
2023-02-26T18:50:34.636Z,100639.56
2023-02-26T18:53:02.168Z,100639.28
2023-02-26T18:55:28.739Z,100643.91
2023-02-26T18:57:55.859Z,100644.13
2023-02-26T19:00:23.755Z,100652.31
2023-02-26T19:02:50.888Z,100653.91
2023-02-26T19:05:18.600Z,100658.00
2023-02-26T19:07:45.181Z,100659.56
2023-02-26T19:10:14.737Z,100661.44
2023-02-26T19:12:42.110Z,100661.38
2023-02-26T19:15:10.033Z,100667.09
2023-02-26T19:17:36.505Z,100663.53
2023-02-26T19:20:03.395Z,100665.94
2023-02-26T19:22:30.127Z,100672.47
2023-02-26T19:24:57.896Z,100668.34
2023-02-26T19:27:24.804Z,100672.94
2023-02-26T19:29:51.381Z,100668.81
2023-02-26T19:32:18.033Z,100676.75
2023-02-26T19:34:44.674Z,100679.44
2023-02-26T19:37:11.442Z,100690.13
2023-02-26T19:39:38.451Z,100683.22
2023-02-26T19:42:05.889Z,100683.16
2023-02-26T19:44:32.862Z,100693.44
2023-02-26T19:46:59.800Z,100697.50
2023-02-26T19:49:26.491Z,100699.59
2023-02-26T19:51:53.181Z,100707.22
2023-02-26T19:54:20.084Z,100713.75
2023-02-26T19:56:46.834Z,100716.44
2023-02-26T19:59:13.363Z,100713.41
2023-02-26T20:01:41.405Z,100720.19
2023-02-26T20:04:09.100Z,100722.94
2023-02-26T20:06:35.789Z,100725.97
2023-02-26T20:09:03.422Z,100722.34
2023-02-26T20:11:29.930Z,100727.06
2023-02-26T20:13:56.478Z,100728.13
2023-02-26T20:16:25.994Z,100735.16
2023-02-26T20:18:52.539Z,100739.31
2023-02-26T20:21:19.178Z,100738.97
2023-02-26T20:23:45.778Z,100740.31
2023-02-26T20:26:14.339Z,100749.91
2023-02-26T20:28:42.298Z,100749.91
2023-02-26T20:31:09.076Z,100750.44
2023-02-26T20:33:37.444Z,100749.03
2023-02-26T20:36:04.475Z,100744.06
2023-02-26T20:38:31.064Z,100751.50
2023-02-26T20:40:57.710Z,100759.38
2023-02-26T20:43:27.612Z,100755.00
2023-02-26T20:45:55.190Z,100761.56
2023-02-26T20:48:22.125Z,100766.69
2023-02-26T20:50:48.874Z,100766.56
2023-02-26T20:53:15.462Z,100764.41
2023-02-26T20:55:41.982Z,100767.41
2023-02-26T20:58:08.434Z,100763.66
2023-02-26T21:00:34.985Z,100761.50
2023-02-26T21:03:01.578Z,100772.16
2023-02-26T21:05:28.228Z,100772.75
2023-02-26T21:07:54.991Z,100777.31
2023-02-26T21:10:21.524Z,100774.59
2023-02-26T21:12:48.134Z,100778.41
2023-02-26T21:15:14.853Z,100781.63
2023-02-26T21:17:42.959Z,100782.97
2023-02-26T21:20:11.999Z,100782.13
2023-02-26T21:22:39.138Z,100787.03
2023-02-26T21:25:06.812Z,100786.78
2023-02-26T21:27:34.099Z,100789.44
2023-02-26T21:30:00.643Z,100791.84
2023-02-26T21:32:27.689Z,100790.13
2023-02-26T21:34:54.295Z,100788.81
2023-02-26T21:37:20.849Z,100800.75
2023-02-26T21:39:48.160Z,100804.28
2023-02-26T21:42:14.904Z,100807.84
2023-02-26T21:44:41.651Z,100806.34
2023-02-26T21:47:08.576Z,100805.03
2023-02-26T21:49:35.226Z,100803.78
2023-02-26T21:52:04.474Z,100805.44
2023-02-26T21:54:31.456Z,100808.34
2023-02-26T21:56:58.345Z,100810.34
2023-02-26T21:59:24.973Z,100811.59
2023-02-26T22:01:52.356Z,100812.84
2023-02-26T22:04:19.603Z,100820.00
2023-02-26T22:06:46.216Z,100818.53
2023-02-26T22:09:13.073Z,100830.91
2023-02-26T22:11:39.757Z,100825.38
2023-02-26T22:14:06.283Z,100833.81
2023-02-26T22:16:32.922Z,100836.28
2023-02-26T22:18:59.410Z,100839.84
2023-02-26T22:21:26.303Z,100837.59
2023-02-26T22:23:52.991Z,100832.88
2023-02-26T22:26:19.916Z,100841.72
2023-02-26T22:28:46.375Z,100835.06
2023-02-26T22:31:12.976Z,100842.78
2023-02-26T22:33:39.838Z,100842.66
2023-02-26T22:36:06.682Z,100842.66
2023-02-26T22:38:33.173Z,100848.44
2023-02-26T22:40:59.673Z,100843.13
2023-02-26T22:43:26.146Z,100846.44
2023-02-26T22:45:52.796Z,100848.91
2023-02-26T22:48:20.829Z,100851.56
2023-02-26T22:50:49.017Z,100843.69
2023-02-26T22:53:15.512Z,100846.19
2023-02-26T22:55:42.087Z,100838.50
2023-02-26T22:58:08.653Z,100849.66
2023-02-26T23:00:35.393Z,100844.44
2023-02-26T23:03:02.197Z,100854.72
2023-02-26T23:05:28.876Z,100851.41
2023-02-26T23:07:55.556Z,100849.91
2023-02-26T23:10:22.416Z,100850.06
2023-02-26T23:12:49.196Z,100848.78
2023-02-26T23:15:15.759Z,100861.50
2023-02-26T23:17:42.955Z,100852.88
2023-02-26T23:20:13.778Z,100858.91
2023-02-26T23:22:41.365Z,100852.63
2023-02-26T23:25:08.242Z,100857.25
2023-02-26T23:27:37.976Z,100857.84
2023-02-26T23:30:05.242Z,100857.97
2023-02-26T23:32:31.736Z,100856.91
2023-02-26T23:34:58.162Z,100860.22
2023-02-26T23:37:24.878Z,100858.56
2023-02-26T23:39:51.406Z,100864.75
2023-02-26T23:42:18.115Z,100874.91
2023-02-26T23:44:44.737Z,100872.66
2023-02-26T23:47:11.392Z,100877.41
2023-02-26T23:49:37.947Z,100876.25
2023-02-26T23:52:04.474Z,100877.22
2023-02-26T23:54:31.106Z,100876.03
2023-02-26T23:56:58.068Z,100883.03
2023-02-26T23:59:24.571Z,100877.47
